Time;durP1;ratioP1;P1;durP2;ratioP2;P2;SDS_P1;SDS_P2;PMS_P1;PMS_P2;Temp;Humidity;BMP_temperature;BMP_pressure;BME280_temperature;BME280_humidity;BME280_pressure;Samples;Min_cycle;Max_cycle;Signal;HPM_P1;HPM_P2
2022/06/25 00:00:35;;;;;;;9.45;6.50;;;24.10;99.90;;;;;;5053421;28;20179;-72
2022/06/25 00:03:01;;;;;;;7.32;6.28;;;24.00;99.90;;;;;;5053126;28;20211;-72
2022/06/25 00:05:30;;;;;;;7.78;6.53;;;24.00;99.90;;;;;;5052954;28;20215;-72
2022/06/25 00:08:00;;;;;;;7.45;6.07;;;24.00;99.90;;;;;;5035041;28;20250;-72
2022/06/25 00:10:25;;;;;;;7.38;6.65;;;23.90;99.90;;;;;;5052865;28;20203;-72
2022/06/25 00:12:51;;;;;;;7.88;6.30;;;23.90;99.90;;;;;;5053365;28;20257;-72
2022/06/25 00:15:17;;;;;;;7.38;6.68;;;23.80;99.90;;;;;;5035048;28;20588;-72
2022/06/25 00:17:43;;;;;;;7.25;6.30;;;23.80;99.90;;;;;;5034813;28;20236;-72
2022/06/25 00:20:10;;;;;;;7.97;7.15;;;23.60;99.90;;;;;;5034751;28;20210;-71
2022/06/25 00:22:36;;;;;;;7.72;6.88;;;23.60;99.90;;;;;;5034503;28;20290;-72
2022/06/25 00:25:02;;;;;;;8.52;6.90;;;23.60;99.90;;;;;;5052549;28;20353;-72
2022/06/25 00:27:28;;;;;;;10.18;7.57;;;23.60;99.90;;;;;;5053151;28;20180;-72
2022/06/25 00:29:53;;;;;;;7.05;6.35;;;23.50;99.90;;;;;;5034483;28;20212;-72
2022/06/25 00:32:19;;;;;;;7.40;6.63;;;23.50;99.90;;;;;;5052524;28;20203;-71
2022/06/25 00:34:44;;;;;;;7.38;6.68;;;23.50;99.90;;;;;;5052179;28;20222;-71
2022/06/25 00:37:10;;;;;;;7.65;6.82;;;23.40;99.90;;;;;;5052320;28;20679;-71
2022/06/25 00:39:37;;;;;;;7.65;6.85;;;23.40;99.90;;;;;;5034725;28;20226;-71
2022/06/25 00:42:09;;;;;;;8.50;6.95;;;23.40;99.90;;;;;;5052535;28;20211;-72
2022/06/25 00:44:34;;;;;;;10.10;7.72;;;23.40;99.90;;;;;;5052286;28;20222;-72
2022/06/25 00:47:01;;;;;;;10.35;8.18;;;23.40;99.90;;;;;;5054922;28;20211;-71
2022/06/25 00:49:26;;;;;;;12.13;8.73;;;23.40;99.90;;;;;;5054855;28;20229;-72
2022/06/25 00:51:53;;;;;;;9.65;8.07;;;23.40;99.90;;;;;;5034960;28;20180;-72
2022/06/25 00:54:21;;;;;;;11.75;8.98;;;23.30;99.90;;;;;;5052210;28;20227;-72
2022/06/25 00:56:49;;;;;;;10.20;9.10;;;23.30;99.90;;;;;;5042988;28;20740;-72
2022/06/25 00:59:18;;;;;;;11.13;9.00;;;23.20;99.90;;;;;;5049587;28;20211;-72
2022/06/25 01:01:44;;;;;;;11.25;9.70;;;23.20;99.90;;;;;;5031446;28;20203;-72
2022/06/25 01:04:09;;;;;;;15.48;12.60;;;23.30;99.90;;;;;;5049941;28;20253;-72
2022/06/25 01:06:36;;;;;;;18.85;14.32;;;23.10;99.90;;;;;;5052391;28;20202;-71
2022/06/25 01:09:01;;;;;;;19.90;16.33;;;23.00;99.90;;;;;;5051605;28;20239;-71
2022/06/25 01:11:27;;;;;;;25.75;21.35;;;23.00;99.90;;;;;;5051649;28;20314;-71
2022/06/25 01:13:53;;;;;;;23.33;21.02;;;23.00;99.90;;;;;;5051677;28;20219;-72
2022/06/25 01:16:22;;;;;;;24.65;21.20;;;22.90;99.90;;;;;;5033861;28;20230;-71
2022/06/25 01:18:48;;;;;;;31.25;22.73;;;22.70;99.90;;;;;;5043927;28;20168;-71
2022/06/25 01:21:14;;;;;;;26.67;22.10;;;22.60;99.90;;;;;;5051523;28;20561;-72
2022/06/25 01:23:41;;;;;;;28.58;24.05;;;22.60;99.90;;;;;;5051507;28;20210;-72
2022/06/25 01:26:07;;;;;;;27.60;24.58;;;22.60;99.90;;;;;;5051673;28;20212;-72
2022/06/25 01:28:32;;;;;;;28.02;24.27;;;22.60;99.90;;;;;;5051354;28;20698;-72
2022/06/25 01:30:58;;;;;;;30.67;24.10;;;22.70;99.90;;;;;;5051320;28;20175;-72
2022/06/25 01:33:24;;;;;;;26.33;23.35;;;22.60;99.90;;;;;;5051616;28;20191;-72
2022/06/25 01:35:49;;;;;;;31.15;25.92;;;22.70;99.90;;;;;;5033545;28;20227;-71
2022/06/25 01:38:15;;;;;;;30.60;26.08;;;22.60;99.90;;;;;;5033171;28;20208;-72
2022/06/25 01:40:41;;;;;;;30.55;26.50;;;22.70;99.90;;;;;;5051198;28;20211;-72
2022/06/25 01:43:06;;;;;;;31.10;26.25;;;22.70;99.90;;;;;;5051225;28;20180;-72
2022/06/25 01:45:34;;;;;;;34.30;26.42;;;22.60;99.90;;;;;;5051597;28;20175;-72
2022/06/25 01:48:01;;;;;;;31.70;26.55;;;22.70;99.90;;;;;;5033045;28;20215;-72
2022/06/25 01:50:28;;;;;;;33.10;26.40;;;22.60;99.90;;;;;;5051104;28;20207;-72
2022/06/25 01:52:53;;;;;;;31.55;26.40;;;22.70;99.90;;;;;;5033364;28;20663;-72
2022/06/25 01:55:20;;;;;;;26.42;23.63;;;22.70;99.90;;;;;;5050975;28;20219;-72
2022/06/25 01:57:46;;;;;;;27.58;24.58;;;22.60;99.90;;;;;;5033326;28;20198;-72
2022/06/25 02:00:16;;;;;;;26.23;23.42;;;22.60;99.90;;;;;;5050865;28;20234;-72
2022/06/25 02:02:42;;;;;;;23.77;20.83;;;22.60;99.90;;;;;;5051032;28;20211;-72
2022/06/25 02:05:08;;;;;;;25.00;19.92;;;22.50;99.90;;;;;;5032970;28;20215;-72
2022/06/25 02:07:34;;;;;;;26.75;20.50;;;22.60;99.90;;;;;;5050564;28;20692;-72
2022/06/25 02:10:00;;;;;;;25.33;20.80;;;22.50;99.90;;;;;;5050699;28;20183;-72
2022/06/25 02:12:25;;;;;;;23.50;19.60;;;22.60;99.90;;;;;;5051530;28;20547;-72
2022/06/25 02:14:51;;;;;;;21.60;19.30;;;22.60;99.90;;;;;;5050620;28;20215;-72
2022/06/25 02:17:17;;;;;;;21.42;18.00;;;22.60;99.90;;;;;;5050585;28;20211;-72
2022/06/25 02:19:42;;;;;;;20.73;16.92;;;22.50;99.90;;;;;;5050510;28;20208;-72
2022/06/25 02:22:14;;;;;;;20.38;18.25;;;22.50;99.90;;;;;;5050832;28;20191;-72
2022/06/25 02:24:41;;;;;;;21.80;18.75;;;22.70;99.90;;;;;;5033154;28;20249;-72
2022/06/25 02:27:07;;;;;;;20.42;18.20;;;22.50;99.90;;;;;;5050633;28;20203;-72
2022/06/25 02:29:32;;;;;;;23.15;17.92;;;22.60;99.90;;;;;;5050192;28;20207;-73
2022/06/25 02:31:59;;;;;;;21.95;17.02;;;22.70;99.90;;;;;;5050721;28;20204;-72
2022/06/25 02:34:24;;;;;;;20.13;18.13;;;22.60;99.90;;;;;;5050402;28;20646;-72
2022/06/25 02:36:50;;;;;;;25.35;19.35;;;22.50;99.90;;;;;;5051181;28;20255;-72
2022/06/25 02:39:17;;;;;;;19.65;17.58;;;22.40;99.90;;;;;;5033229;28;20276;-72
2022/06/25 02:41:43;;;;;;;21.70;18.13;;;22.50;99.90;;;;;;5032802;28;20214;-72
2022/06/25 02:44:08;;;;;;;19.77;17.65;;;22.50;99.90;;;;;;5030675;28;20211;-72
2022/06/25 02:46:34;;;;;;;21.55;18.02;;;22.60;99.90;;;;;;5045313;28;20207;-72
2022/06/25 02:48:59;;;;;;;21.10;18.73;;;22.70;99.90;;;;;;5032450;28;20180;-72
2022/06/25 02:51:25;;;;;;;25.15;21.88;;;22.80;99.90;;;;;;5032853;28;20180;-72
2022/06/25 02:53:51;;;;;;;22.73;19.80;;;22.80;99.90;;;;;;5049955;28;20223;-72
2022/06/25 02:59:02;;;;;;;23.50;20.90;;;22.90;99.90;;;;;;5050035;28;20214;-72
2022/06/25 03:01:29;;;;;;;22.75;20.10;;;22.90;99.90;;;;;;5049958;28;20211;-71
2022/06/25 03:03:56;;;;;;;28.42;23.33;;;22.80;99.90;;;;;;5032308;28;20207;-72
2022/06/25 03:06:22;;;;;;;24.98;21.35;;;22.80;99.90;;;;;;5050644;28;20180;-72
2022/06/25 03:08:48;;;;;;;24.08;18.85;;;22.70;99.90;;;;;;5049813;28;20676;-72
2022/06/25 03:11:14;;;;;;;24.05;20.63;;;22.60;99.90;;;;;;5050084;28;20212;-71
2022/06/25 03:13:40;;;;;;;21.05;18.88;;;22.40;99.90;;;;;;5049866;28;20291;-72
2022/06/25 03:16:07;;;;;;;22.48;20.00;;;22.50;99.90;;;;;;5032121;28;20745;-72
2022/06/25 03:18:34;;;;;;;22.35;19.95;;;22.60;99.90;;;;;;5050456;28;20175;-72
2022/06/25 03:21:00;;;;;;;21.67;19.38;;;22.70;99.90;;;;;;5053659;28;20211;-72
2022/06/25 03:23:26;;;;;;;22.17;19.70;;;22.90;99.90;;;;;;5053691;28;20207;-72
2022/06/25 03:25:52;;;;;;;21.50;19.00;;;22.90;99.90;;;;;;5035235;28;20212;-72
2022/06/25 03:28:18;;;;;;;23.02;19.77;;;23.00;99.90;;;;;;5053280;28;20210;-72
2022/06/25 03:30:44;;;;;;;22.63;20.00;;;22.80;99.90;;;;;;5036020;28;20557;-71
2022/06/25 03:33:10;;;;;;;23.58;20.48;;;22.90;99.90;;;;;;5053498;28;20218;-72
2022/06/25 03:35:35;;;;;;;24.67;21.30;;;22.90;99.90;;;;;;5053294;28;20211;-71
2022/06/25 03:38:01;;;;;;;24.48;20.92;;;23.00;99.90;;;;;;5053441;28;20241;-72
2022/06/25 03:40:26;;;;;;;22.67;19.77;;;23.10;99.90;;;;;;5053327;28;20687;-72
2022/06/25 03:42:52;;;;;;;22.95;20.48;;;23.30;99.90;;;;;;5053873;28;20175;-72
2022/06/25 03:45:18;;;;;;;24.10;20.60;;;23.20;99.90;;;;;;5035577;28;20569;-72
2022/06/25 03:47:50;;;;;;;27.55;21.23;;;23.10;99.90;;;;;;5052873;28;20583;-72
2022/06/25 03:50:20;;;;;;;23.10;20.63;;;23.30;99.90;;;;;;5053177;28;20741;-72
2022/06/25 03:52:47;;;;;;;26.52;21.10;;;23.40;99.90;;;;;;5052859;28;20219;-72
2022/06/25 03:55:13;;;;;;;24.55;20.95;;;23.40;99.90;;;;;;5052785;28;20683;-72
2022/06/25 03:57:39;;;;;;;23.80;20.95;;;23.50;99.90;;;;;;5053434;28;20191;-72
2022/06/25 04:00:06;;;;;;;25.25;20.90;;;23.50;99.90;;;;;;5052931;28;20204;-72
2022/06/25 04:02:32;;;;;;;27.90;22.17;;;23.50;99.90;;;;;;5034962;28;20728;-72
2022/06/25 04:04:58;;;;;;;23.10;20.80;;;23.30;99.90;;;;;;5044702;28;20299;-72
2022/06/25 04:07:23;;;;;;;23.15;20.75;;;23.80;99.90;;;;;;5052652;28;20282;-72
2022/06/25 04:09:49;;;;;;;22.48;20.17;;;24.80;99.90;;;;;;5053135;28;20891;-72
2022/06/25 04:12:15;;;;;;;23.55;19.75;;;25.80;99.90;;;;;;5052884;28;20207;-72
2022/06/25 04:14:40;;;;;;;22.65;20.25;;;26.50;99.90;;;;;;5052825;28;20227;-72
2022/06/25 04:17:06;;;;;;;22.40;19.40;;;26.60;99.90;;;;;;5061610;28;20242;-72
2022/06/25 04:19:39;;;;;;;27.15;22.27;;;26.80;99.90;;;;;;5059315;28;20214;-72
2022/06/25 04:22:11;;;;;;;26.42;23.63;;;27.50;99.90;;;;;;5055095;28;20248;-73
2022/06/25 04:24:38;;;;;;;25.45;22.13;;;27.60;99.90;;;;;;5056377;28;20252;-71
2022/06/25 04:27:05;;;;;;;24.40;21.40;;;26.90;99.90;;;;;;5053002;28;20207;-72
2022/06/25 04:29:30;;;;;;;24.55;21.83;;;26.00;99.90;;;;;;5052245;28;20216;-71
2022/06/25 04:31:56;;;;;;;23.05;20.75;;;25.20;99.90;;;;;;5052528;28;20204;-71
2022/06/25 04:34:23;;;;;;;22.58;20.35;;;24.80;99.90;;;;;;5052221;28;20301;-72
2022/06/25 04:36:49;;;;;;;23.40;20.95;;;24.60;99.90;;;;;;5052767;28;20180;-71
2022/06/25 04:39:14;;;;;;;25.38;21.20;;;24.80;99.90;;;;;;5052008;28;20226;-71
2022/06/25 04:41:40;;;;;;;24.33;21.67;;;25.10;99.90;;;;;;5052148;28;20638;-71
2022/06/25 04:44:06;;;;;;;25.00;21.65;;;25.10;99.90;;;;;;5052172;28;20215;-71
2022/06/25 04:46:31;;;;;;;22.80;20.40;;;24.90;99.90;;;;;;5049896;28;20208;-72
2022/06/25 04:48:57;;;;;;;21.55;19.35;;;24.80;99.90;;;;;;5034024;28;20203;-72
2022/06/25 04:51:24;;;;;;;21.17;18.98;;;24.90;99.90;;;;;;5034490;28;20267;-71
2022/06/25 04:53:56;;;;;;;25.63;21.80;;;24.90;99.90;;;;;;5051781;28;20302;-72
2022/06/25 04:56:31;;;;;;;22.10;19.92;;;24.90;99.90;;;;;;5051910;28;20234;-72
2022/06/25 04:58:57;;;;;;;21.65;19.30;;;25.10;99.90;;;;;;5033895;28;20204;-72
2022/06/25 05:01:23;;;;;;;20.83;18.02;;;26.10;99.90;;;;;;5051805;28;20645;-72
2022/06/25 05:03:49;;;;;;;21.35;18.98;;;26.40;99.90;;;;;;5050539;28;20203;-72
2022/06/25 05:06:15;;;;;;;20.63;18.38;;;26.60;99.90;;;;;;5051874;28;20211;-72
2022/06/25 05:08:41;;;;;;;19.80;17.25;;;27.40;99.90;;;;;;5051564;28;20215;-72
2022/06/25 05:11:07;;;;;;;19.50;17.17;;;29.00;99.90;;;;;;5051762;28;20287;-72
2022/06/25 05:13:32;;;;;;;18.88;16.45;;;30.20;99.90;;;;;;5051472;28;20294;-72
2022/06/25 05:15:58;;;;;;;17.02;15.35;;;32.00;99.90;;;;;;5051809;28;20343;-73
2022/06/25 05:18:23;;;;;;;17.13;15.32;;;32.60;99.90;;;;;;5051716;28;20175;-72
2022/06/25 05:20:49;;;;;;;17.15;15.45;;;31.30;99.90;;;;;;5052434;28;20212;-72
2022/06/25 05:23:15;;;;;;;18.08;16.38;;;30.70;99.90;;;;;;5034756;28;20195;-72
2022/06/25 05:25:41;;;;;;;19.10;16.75;;;29.50;99.90;;;;;;5052369;28;20213;-72
2022/06/25 05:28:07;;;;;;;19.15;16.85;;;28.90;99.90;;;;;;5052095;28;20508;-73
2022/06/25 05:30:33;;;;;;;17.25;15.55;;;28.90;99.90;;;;;;5034009;28;20309;-72
2022/06/25 05:32:58;;;;;;;18.10;15.23;;;29.60;99.90;;;;;;5051276;28;20337;-72
2022/06/25 05:35:25;;;;;;;17.33;15.55;;;30.30;99.90;;;;;;5033441;28;20234;-72
2022/06/25 05:37:50;;;;;;;18.17;16.33;;;31.30;99.90;;;;;;5051327;28;20199;-72
2022/06/25 05:40:16;;;;;;;16.23;14.63;;;32.00;99.90;;;;;;5051293;28;20273;-71
2022/06/25 05:42:42;;;;;;;16.50;13.95;;;31.90;99.90;;;;;;5051326;28;20229;-71
2022/06/25 05:45:08;;;;;;;16.98;15.23;;;31.30;99.90;;;;;;5033673;28;20211;-71
2022/06/25 05:47:33;;;;;;;17.00;14.65;;;31.60;99.90;;;;;;5051148;28;20206;-71
2022/06/25 05:49:59;;;;;;;18.73;15.07;;;31.90;99.90;;;;;;5033183;28;20207;-72
2022/06/25 05:52:24;;;;;;;15.65;14.23;;;32.90;99.90;;;;;;5051084;28;20211;-71
2022/06/25 05:54:50;;;;;;;16.02;14.43;;;33.10;99.90;;;;;;5073404;23;20234;-71
2022/06/25 05:57:16;;;;;;;13.57;12.18;;;32.80;99.90;;;;;;5050522;28;20233;-71
2022/06/25 05:59:41;;;;;;;13.63;12.25;;;31.60;99.90;;;;;;5049808;28;20195;-70
2022/06/25 06:02:07;;;;;;;13.80;12.27;;;30.80;99.90;;;;;;5050500;28;20632;-70
2022/06/25 06:04:33;;;;;;;14.57;13.07;;;30.00;99.90;;;;;;5050288;28;20228;-71
2022/06/25 06:07:02;;;;;;;14.52;13.20;;;29.40;99.90;;;;;;5050279;28;20176;-71
2022/06/25 06:09:29;;;;;;;14.55;13.18;;;28.90;99.90;;;;;;5050563;28;20172;-70
2022/06/25 06:11:55;;;;;;;14.95;13.38;;;29.30;99.90;;;;;;5050462;28;20207;-70
2022/06/25 06:14:21;;;;;;;14.85;13.45;;;29.70;99.90;;;;;;5050160;28;20223;-71
2022/06/25 06:16:47;;;;;;;14.65;13.20;;;30.90;99.90;;;;;;5032602;28;20353;-71
2022/06/25 06:19:12;;;;;;;14.13;12.82;;;32.10;99.90;;;;;;5050099;28;20294;-71
2022/06/25 06:21:38;;;;;;;13.80;12.38;;;33.10;99.90;;;;;;5050615;28;20191;-71
2022/06/25 06:24:04;;;;;;;14.10;12.65;;;34.10;99.90;;;;;;5050467;28;20203;-70
2022/06/25 06:26:29;;;;;;;12.07;11.02;;;34.40;99.90;;;;;;5050141;28;20238;-70
2022/06/25 06:28:55;;;;;;;13.32;12.02;;;34.60;99.90;;;;;;5032103;28;20276;-71
2022/06/25 06:31:20;;;;;;;13.38;12.07;;;34.70;99.90;;;;;;5050157;28;20215;-71
2022/06/25 06:33:46;;;;;;;13.05;11.73;;;34.30;99.90;;;;;;5050894;28;20194;-71
2022/06/25 06:36:12;;;;;;;14.10;12.88;;;34.20;99.90;;;;;;5050007;28;20211;-70
2022/06/25 06:38:38;;;;;;;14.15;12.68;;;33.30;99.90;;;;;;5049690;28;20202;-70
2022/06/25 06:41:04;;;;;;;15.25;13.57;;;32.50;99.90;;;;;;5032344;28;20207;-71
2022/06/25 06:43:29;;;;;;;14.80;13.38;;;31.50;99.90;;;;;;5049997;28;20207;-70
2022/06/25 06:45:55;;;;;;;13.88;12.18;;;31.30;99.90;;;;;;5050133;28;20203;-71
2022/06/25 06:48:21;;;;;;;16.20;14.55;;;31.20;99.90;;;;;;5050146;28;20397;-70
2022/06/25 06:50:46;;;;;;;15.63;13.63;;;30.50;99.90;;;;;;5050078;28;20198;-70
2022/06/25 06:53:12;;;;;;;16.10;14.50;;;29.90;99.90;;;;;;5031912;28;20216;-70
2022/06/25 06:55:37;;;;;;;13.30;12.00;;;29.60;99.90;;;;;;5053126;28;20580;-70
2022/06/25 06:58:03;;;;;;;15.02;12.93;;;30.10;99.90;;;;;;5053779;28;20600;-69
2022/06/25 07:00:28;;;;;;;14.27;12.77;;;30.00;99.90;;;;;;5054127;28;20179;-70
2022/06/25 07:02:54;;;;;;;14.20;12.80;;;30.00;99.90;;;;;;5036073;28;20224;-70
2022/06/25 07:05:20;;;;;;;14.15;12.65;;;29.80;99.90;;;;;;5053620;28;20239;-70
2022/06/25 07:07:47;;;;;;;13.23;11.93;;;29.90;99.90;;;;;;5053671;28;20200;-70
2022/06/25 07:10:13;;;;;;;13.80;12.40;;;29.20;99.90;;;;;;5053623;28;20203;-71
2022/06/25 07:12:39;;;;;;;15.23;13.63;;;29.40;99.90;;;;;;5054162;28;20183;-71
2022/06/25 07:15:06;;;;;;;15.75;14.20;;;29.40;99.90;;;;;;5035588;28;20219;-70
2022/06/25 07:17:31;;;;;;;15.07;13.48;;;29.30;99.90;;;;;;5053544;28;20233;-70
2022/06/25 07:19:58;;;;;;;16.65;13.93;;;29.60;99.90;;;;;;5053184;28;20286;-70
2022/06/25 07:22:23;;;;;;;18.67;14.95;;;29.70;99.90;;;;;;5053412;28;20346;-70
2022/06/25 07:24:51;;;;;;;15.70;13.90;;;30.10;99.90;;;;;;5053969;28;20228;-69
2022/06/25 07:27:17;;;;;;;14.82;13.35;;;30.50;99.90;;;;;;5053219;28;20677;-70
2022/06/25 07:29:43;;;;;;;14.23;12.65;;;30.80;99.90;;;;;;5052857;28;20253;-71
2022/06/25 07:32:08;;;;;;;14.27;12.88;;;30.30;99.90;;;;;;5053197;28;20204;-70
2022/06/25 07:34:34;;;;;;;16.75;14.52;;;29.80;99.90;;;;;;5053108;28;20306;-70
2022/06/25 07:36:59;;;;;;;15.77;14.32;;;30.20;99.90;;;;;;5053219;28;20595;-70
2022/06/25 07:39:25;;;;;;;15.40;13.88;;;29.80;99.90;;;;;;5053375;28;20555;-71
2022/06/25 07:41:51;;;;;;;16.27;14.57;;;29.70;99.90;;;;;;5052885;28;20208;-69
2022/06/25 07:44:16;;;;;;;15.23;13.82;;;30.10;99.90;;;;;;5034958;28;20656;-70
2022/06/25 07:46:42;;;;;;;15.55;13.98;;;30.20;99.90;;;;;;5052833;28;20759;-70
2022/06/25 07:49:09;;;;;;;14.90;13.32;;;30.30;99.90;;;;;;5034664;28;20208;-71
2022/06/25 07:54:20;;;;;;;14.88;13.25;;;31.60;99.90;;;;;;5052805;28;20262;-71
2022/06/25 07:56:45;;;;;;;14.57;13.13;;;32.20;99.90;;;;;;5052357;28;20207;-70
2022/06/25 07:59:11;;;;;;;14.63;12.02;;;32.60;99.90;;;;;;5034359;28;20234;-70
2022/06/25 08:01:36;;;;;;;14.98;13.57;;;34.00;99.90;;;;;;5034515;28;20730;-71
2022/06/25 08:04:02;;;;;;;13.73;12.32;;;34.90;99.90;;;;;;5052818;28;20653;-71
2022/06/25 08:06:28;;;;;;;15.07;13.50;;;34.80;99.90;;;;;;5060551;28;20666;-70
2022/06/25 08:08:54;;;;;;;14.85;13.45;;;34.10;99.90;;;;;;5039063;28;20752;-70
2022/06/25 08:11:19;;;;;;;16.30;14.80;;;33.80;99.90;;;;;;5056129;28;20218;-70
2022/06/25 08:13:45;;;;;;;17.35;15.60;;;33.50;99.90;;;;;;5052084;28;20215;-71
2022/06/25 08:16:10;;;;;;;18.55;16.08;;;32.90;99.90;;;;;;5052250;28;20215;-71
2022/06/25 08:18:38;;;;;;;17.55;15.85;;;32.90;99.90;;;;;;5054782;28;20179;-70
2022/06/25 08:21:04;;;;;;;17.00;14.15;;;31.80;99.90;;;;;;5058074;28;20218;-71
2022/06/25 08:23:30;;;;;;;17.08;15.38;;;31.90;99.90;;;;;;5051881;28;20281;-70
2022/06/25 08:25:55;;;;;;;18.70;16.90;;;32.30;99.90;;;;;;5033937;28;20246;-71
2022/06/25 08:28:22;;;;;;;17.27;15.68;;;33.20;99.90;;;;;;5051827;28;20746;-72
2022/06/25 08:30:48;;;;;;;16.75;15.00;;;34.00;99.90;;;;;;5052503;28;20583;-72
2022/06/25 08:33:14;;;;;;;15.82;14.32;;;33.70;99.90;;;;;;5051995;28;20207;-72
2022/06/25 08:35:40;;;;;;;15.00;13.50;;;32.80;99.90;;;;;;5051760;28;20211;-72
2022/06/25 08:38:06;;;;;;;15.30;13.82;;;32.90;99.90;;;;;;5060051;28;20203;-71
2022/06/25 08:40:32;;;;;;;17.30;15.70;;;33.20;99.90;;;;;;5051784;28;20203;-71
2022/06/25 08:42:58;;;;;;;16.33;14.70;;;32.80;99.90;;;;;;5051992;28;20578;-72
2022/06/25 08:45:24;;;;;;;15.13;13.63;;;32.80;99.90;;;;;;5034167;28;20579;-71
2022/06/25 08:47:51;;;;;;;15.90;14.10;;;31.70;99.90;;;;;;5033741;28;20195;-72
2022/06/25 08:50:21;;;;;;;17.17;15.35;;;31.40;99.90;;;;;;5051603;28;20207;-72
2022/06/25 08:52:49;;;;;;;17.98;15.75;;;31.30;99.90;;;;;;5043799;28;20200;-72
2022/06/25 08:55:32;;;;;;;14.77;13.27;;;31.30;99.90;;;;;;5051468;28;20215;-72
2022/06/25 08:57:59;;;;;;;13.23;12.00;;;30.80;99.90;;;;;;5044854;28;20696;-72
2022/06/25 09:00:26;;;;;;;12.80;11.45;;;30.80;99.90;;;;;;5051788;28;20171;-71
2022/06/25 09:02:51;;;;;;;14.73;12.82;;;30.70;99.90;;;;;;5051619;28;20218;-72
2022/06/25 09:05:23;;;;;;;14.32;11.93;;;30.80;99.90;;;;;;5051305;28;20207;-72
2022/06/25 09:08:00;;;;;;;15.65;11.68;;;30.70;99.90;;;;;;5051396;28;20215;-71
2022/06/25 09:10:27;;;;;;;13.10;11.70;;;30.60;99.90;;;;;;5051114;28;20203;-69
2022/06/25 09:12:54;;;;;;;12.00;10.80;;;30.70;99.90;;;;;;5051347;28;20186;-72
2022/06/25 09:15:39;;;;;;;12.80;11.52;;;30.60;99.90;;;;;;5034946;28;20206;-72
2022/06/25 09:18:07;;;;;;;12.82;11.57;;;30.50;99.90;;;;;;5044594;28;20264;-71
2022/06/25 09:20:33;;;;;;;12.43;11.13;;;30.40;99.90;;;;;;5050873;28;20702;-72
2022/06/25 09:23:03;;;;;;;12.63;11.48;;;30.30;99.90;;;;;;5051257;28;20350;-71
2022/06/25 09:25:31;;;;;;;18.88;14.73;;;30.10;99.90;;;;;;5050962;28;20219;-72
2022/06/25 09:27:57;;;;;;;16.10;14.40;;;30.00;99.90;;;;;;5050886;28;20628;-71
2022/06/25 09:30:25;;;;;;;18.35;16.45;;;29.90;99.90;;;;;;5051348;28;20172;-71
2022/06/25 09:32:55;;;;;;;19.45;17.23;;;29.90;99.90;;;;;;5033326;28;20273;-73
2022/06/25 09:35:32;;;;;;;17.92;15.23;;;30.00;99.90;;;;;;5049336;28;20766;-72
2022/06/25 09:38:14;;;;;;;14.15;12.85;;;30.10;99.90;;;;;;5057474;28;20203;-71
2022/06/25 09:40:50;;;;;;;14.25;12.77;;;30.10;99.90;;;;;;5050625;28;20211;-70
2022/06/25 09:43:47;;;;;;;18.00;13.70;;;30.20;99.90;;;;;;5051013;28;20206;-71
2022/06/25 09:46:13;;;;;;;13.73;12.52;;;30.00;99.90;;;;;;5050091;28;21052;-71
2022/06/25 09:48:41;;;;;;;20.55;18.50;;;30.00;99.90;;;;;;5050858;28;20266;-71
2022/06/25 09:51:26;;;;;;;19.63;17.35;;;29.80;99.90;;;;;;5050753;28;20211;-71
2022/06/25 09:53:54;;;;;;;13.95;12.57;;;29.90;99.90;;;;;;5032693;28;20289;-71
2022/06/25 09:56:22;;;;;;;16.77;12.63;;;29.90;99.90;;;;;;5050378;28;20295;-71
2022/06/25 09:58:49;;;;;;;13.80;12.40;;;29.90;99.90;;;;;;5050252;28;20195;-71
2022/06/25 10:01:16;;;;;;;13.23;11.35;;;29.80;99.90;;;;;;5050462;28;20218;-71
2022/06/25 10:03:43;;;;;;;13.15;11.85;;;29.70;99.90;;;;;;5051075;28;20182;-71
2022/06/25 10:06:12;;;;;;;13.63;12.25;;;29.60;99.90;;;;;;5032459;28;20269;-71
2022/06/25 10:08:38;;;;;;;16.35;13.68;;;29.60;99.90;;;;;;5049705;28;20330;-71
2022/06/25 10:11:06;;;;;;;14.23;12.75;;;29.70;99.90;;;;;;5050431;28;20269;-71
2022/06/25 10:13:33;;;;;;;15.75;12.98;;;29.70;99.90;;;;;;5049983;28;20242;-70
2022/06/25 10:15:59;;;;;;;15.38;12.70;;;29.70;99.90;;;;;;5050169;28;20291;-71
2022/06/25 10:18:25;;;;;;;14.23;12.85;;;29.80;99.90;;;;;;5050541;28;20506;-71
2022/06/25 10:20:51;;;;;;;13.73;12.32;;;29.80;99.90;;;;;;5050378;28;20293;-71
2022/06/25 10:23:19;;;;;;;16.70;14.98;;;29.80;99.90;;;;;;5050069;28;20199;-71
2022/06/25 10:25:46;;;;;;;26.73;23.75;;;29.90;99.90;;;;;;5049914;28;20233;-71
2022/06/25 10:28:23;;;;;;;14.20;12.73;;;30.10;99.90;;;;;;5051201;28;25844;-71
2022/06/25 10:30:54;;;;;;;13.57;12.27;;;30.20;99.90;;;;;;5055053;28;20191;-71
2022/06/25 10:33:29;;;;;;;13.80;12.43;;;30.00;99.90;;;;;;5054637;28;20646;-71
2022/06/25 10:35:57;;;;;;;13.57;12.27;;;30.20;99.90;;;;;;5047422;28;20218;-71
2022/06/25 10:38:25;;;;;;;13.60;12.15;;;30.40;99.90;;;;;;5053919;28;20227;-70
2022/06/25 10:43:57;;;;;;;14.82;13.23;;;30.60;99.90;;;;;;5047422;28;20293;-71
2022/06/25 10:46:25;;;;;;;15.38;13.80;;;30.50;99.90;;;;;;5053847;28;20633;-71
2022/06/25 10:49:11;;;;;;;14.38;12.98;;;30.50;99.90;;;;;;5054289;28;20232;-71
2022/06/25 10:51:42;;;;;;;15.52;12.95;;;30.40;99.90;;;;;;5054273;28;20211;-71
2022/06/25 10:54:33;;;;;;;13.52;12.15;;;30.10;99.90;;;;;;5053853;28;20242;-71
2022/06/25 10:57:02;;;;;;;16.08;13.23;;;29.80;99.90;;;;;;5047371;28;20806;-70
2022/06/25 10:59:34;;;;;;;15.82;12.93;;;29.70;99.90;;;;;;5035506;28;20204;-71
2022/06/25 11:02:03;;;;;;;19.77;17.20;;;29.50;99.90;;;;;;5053713;28;20235;-69
2022/06/25 11:04:30;;;;;;;14.38;12.98;;;29.40;99.90;;;;;;5053962;28;20208;-70
2022/06/25 11:07:08;;;;;;;19.30;15.85;;;29.20;99.90;;;;;;5053515;28;20175;-71
2022/06/25 11:09:35;;;;;;;31.60;25.98;;;29.10;99.90;;;;;;5036057;28;20203;-71
2022/06/25 11:12:01;;;;;;;16.00;14.35;;;29.20;99.90;;;;;;5053596;28;20341;-71
2022/06/25 11:14:26;;;;;;;16.33;14.02;;;29.10;99.90;;;;;;5035738;28;20227;-71
2022/06/25 11:16:53;;;;;;;17.38;15.40;;;29.20;99.90;;;;;;5053571;28;20228;-71
2022/06/25 11:19:22;;;;;;;17.55;14.93;;;29.50;99.90;;;;;;5035250;28;20366;-71
2022/06/25 11:21:49;;;;;;;16.95;15.43;;;29.50;99.90;;;;;;5046063;28;20549;-72
2022/06/25 11:24:18;;;;;;;16.00;14.50;;;29.60;99.90;;;;;;5053482;28;20208;-71
2022/06/25 11:29:53;;;;;;;17.25;15.40;;;30.00;99.90;;;;;;5045324;28;20252;-71
2022/06/25 11:32:25;;;;;;;16.23;14.15;;;30.40;99.90;;;;;;5035261;28;20218;-71
2022/06/25 11:34:56;;;;;;;15.43;14.05;;;30.60;99.90;;;;;;5045513;28;20703;-72
2022/06/25 11:37:22;;;;;;;14.00;12.65;;;30.70;99.90;;;;;;5052826;28;20235;-70
2022/06/25 11:39:48;;;;;;;15.30;13.90;;;30.60;99.90;;;;;;5052424;28;20176;-71
2022/06/25 11:42:15;;;;;;;15.85;14.32;;;30.90;99.90;;;;;;5053053;28;20203;-71
2022/06/25 11:44:54;;;;;;;14.63;13.15;;;31.20;99.90;;;;;;5037631;28;21084;-72
2022/06/25 11:47:28;;;;;;;14.55;13.15;;;31.10;99.90;;;;;;5056513;28;20207;-71
2022/06/25 11:49:53;;;;;;;18.42;13.40;;;31.10;99.90;;;;;;5027784;28;20207;-71
2022/06/25 11:52:21;;;;;;;16.42;13.30;;;30.90;99.90;;;;;;5053022;28;20207;-71
2022/06/25 11:54:48;;;;;;;20.48;16.73;;;30.70;99.90;;;;;;5052950;28;20211;-71
2022/06/25 11:57:24;;;;;;;17.15;15.55;;;30.80;99.90;;;;;;5060309;23;20668;-71
2022/06/25 11:59:52;;;;;;;15.75;14.15;;;30.90;99.90;;;;;;5014767;28;20219;-71
2022/06/25 12:02:17;;;;;;;19.08;14.27;;;31.10;99.90;;;;;;5033224;28;20655;-71
2022/06/25 12:04:54;;;;;;;16.42;14.70;;;31.20;99.90;;;;;;5032639;28;20223;-71
2022/06/25 12:07:23;;;;;;;13.18;11.88;;;31.20;99.90;;;;;;5049683;28;20211;-71
2022/06/25 12:09:51;;;;;;;14.73;11.73;;;31.10;99.90;;;;;;5020086;28;20176;-72
2022/06/25 12:12:18;;;;;;;14.60;13.20;;;31.10;99.90;;;;;;5053238;28;20207;-72
2022/06/25 12:14:45;;;;;;;15.35;13.93;;;31.30;99.90;;;;;;5052708;28;20636;-71
2022/06/25 12:17:11;;;;;;;14.60;12.57;;;31.50;99.90;;;;;;5053057;28;20294;-71
2022/06/25 12:19:52;;;;;;;14.13;12.73;;;31.40;99.90;;;;;;5052589;28;20224;-72
2022/06/25 12:22:22;;;;;;;12.77;11.57;;;31.10;99.90;;;;;;5052951;28;20207;-72
2022/06/25 12:24:49;;;;;;;12.52;11.32;;;30.80;99.90;;;;;;5037471;28;20188;-71
2022/06/25 12:27:15;;;;;;;12.80;11.50;;;30.90;99.90;;;;;;5034702;28;20219;-72
2022/06/25 12:29:44;;;;;;;14.55;12.75;;;31.00;99.90;;;;;;5052006;28;20310;-72
2022/06/25 12:32:09;;;;;;;13.30;11.93;;;31.00;99.90;;;;;;5034961;28;20207;-72
2022/06/25 12:34:49;;;;;;;14.15;12.52;;;30.80;99.90;;;;;;5051883;28;20337;-72
2022/06/25 12:37:31;;;;;;;15.85;12.07;;;30.60;99.90;;;;;;5052520;28;20219;-72
2022/06/25 12:39:58;;;;;;;12.68;11.38;;;30.70;99.90;;;;;;5039258;28;20238;-72